Time;durP1;ratioP1;P1;durP2;ratioP2;P2;SDS_P1;SDS_P2;PMS_P1;PMS_P2;Temp;Humidity;BMP_temperature;BMP_pressure;BME280_temperature;BME280_humidity;BME280_pressure;Samples;Min_cycle;Max_cycle;Signal;HPM_P1;HPM_P2
2021/10/27 11:37:23;;;;;;;4.38;2.85;;;13.80;99.90;;;;;;5070680;28;20207;-80
2021/10/27 11:39:55;;;;;;;4.10;2.83;;;14.00;99.90;;;;;;5070556;28;20168;-80
2021/10/27 11:45:06;;;;;;;2.80;2.67;;;14.10;99.90;;;;;;5070443;28;20669;-80
2021/10/27 11:47:39;;;;;;;4.80;2.47;;;14.20;99.90;;;;;;5070323;28;20199;-81
2021/10/27 11:50:06;;;;;;;3.67;2.85;;;14.30;99.90;;;;;;5070273;28;20598;-81
2021/10/27 11:52:38;;;;;;;3.20;3.00;;;14.30;99.90;;;;;;5070277;28;20169;-80
2021/10/27 11:55:08;;;;;;;9.27;3.47;;;14.40;99.90;;;;;;5070111;28;20169;-81
2021/10/27 11:57:36;;;;;;;4.63;2.70;;;14.60;99.90;;;;;;5070163;28;20251;-81
2021/10/27 12:00:06;;;;;;;9.35;3.08;;;14.70;99.90;;;;;;5070172;28;20169;-81
2021/10/27 12:03:06;;;;;;;3.35;2.28;;;14.70;99.90;;;;;;5070084;28;20168;-81
2021/10/27 12:05:42;;;;;;;3.35;2.67;;;14.80;99.90;;;;;;5069910;28;20169;-81
2021/10/27 12:11:17;;;;;;;4.63;3.90;;;14.90;99.90;;;;;;5058543;28;20177;-81
2021/10/27 12:13:50;;;;;;;10.43;2.50;;;14.90;99.90;;;;;;5069881;28;20564;-81
2021/10/27 12:19:12;;;;;;;2.40;2.30;;;14.80;99.90;;;;;;5070058;28;20527;-81
2021/10/27 12:21:44;;;;;;;3.53;2.15;;;14.80;99.90;;;;;;5069689;28;20168;-81
2021/10/27 12:24:15;;;;;;;2.90;2.67;;;14.90;99.90;;;;;;5068348;28;20212;-81
2021/10/27 12:27:00;;;;;;;4.40;2.80;;;14.90;99.90;;;;;;5069292;28;20216;-81
2021/10/27 12:29:31;;;;;;;3.08;2.40;;;14.90;99.90;;;;;;5069382;28;20203;-81
2021/10/27 12:32:11;;;;;;;3.20;2.50;;;14.90;99.90;;;;;;5069486;28;20160;-80
2021/10/27 12:34:49;;;;;;;2.38;2.25;;;14.80;99.90;;;;;;5068051;28;20178;-81
2021/10/27 12:37:34;;;;;;;3.30;2.72;;;14.90;99.90;;;;;;5069369;28;20195;-80
2021/10/27 12:40:44;;;;;;;4.95;2.58;;;14.90;99.90;;;;;;5055640;28;20633;-80
2021/10/27 12:43:17;;;;;;;3.08;2.85;;;14.90;99.90;;;;;;5056061;28;20535;-81
2021/10/27 12:45:50;;;;;;;3.80;2.30;;;15.00;99.90;;;;;;5056056;28;20653;-81
2021/10/27 12:48:25;;;;;;;3.08;2.05;;;15.10;99.90;;;;;;5054861;28;20211;-81
2021/10/27 12:51:06;;;;;;;4.30;2.22;;;15.20;99.90;;;;;;5055957;28;20247;-80
2021/10/27 12:53:32;;;;;;;3.63;2.17;;;15.30;99.90;;;;;;5054853;28;20546;-81
2021/10/27 12:56:17;;;;;;;3.65;2.28;;;15.30;99.90;;;;;;5055801;28;20161;-81
2021/10/27 12:58:55;;;;;;;6.20;2.20;;;15.40;99.90;;;;;;5054465;28;20172;-81
2021/10/27 13:01:36;;;;;;;2.20;2.00;;;15.50;99.90;;;;;;5055775;28;20169;-81
2021/10/27 13:04:24;;;;;;;2.92;2.20;;;15.70;99.90;;;;;;5055684;28;20646;-81
2021/10/27 13:18:09;;;;;;;2.25;1.98;;;16.10;99.90;;;;;;5055751;28;20177;-81
2021/10/27 13:30:34;;;;;;;2.38;2.17;;;16.50;99.90;;;;;;5055263;28;20212;-81
2021/10/27 13:33:03;;;;;;;3.22;2.40;;;16.50;99.90;;;;;;5055084;28;20258;-81
2021/10/27 13:35:31;;;;;;;2.10;1.90;;;16.60;99.90;;;;;;5055110;28;20645;-81
2021/10/27 13:37:57;;;;;;;2.90;2.38;;;16.60;99.90;;;;;;5053871;28;20215;-82
2021/10/27 13:40:25;;;;;;;1.77;1.67;;;16.80;99.90;;;;;;5054968;28;20170;-81
2021/10/27 13:42:57;;;;;;;3.15;2.83;;;16.80;99.90;;;;;;5055003;28;20165;-81
2021/10/27 13:45:30;;;;;;;3.80;2.47;;;16.90;99.90;;;;;;5054952;28;20173;-78
2021/10/27 14:06:55;;;;;;;3.50;2.92;;;15.60;99.90;;;;;;5054432;28;20206;-80
2021/10/27 14:09:30;;;;;;;4.65;2.80;;;15.50;99.90;;;;;;5053878;28;20600;-80
2021/10/27 14:12:06;;;;;;;5.18;4.03;;;15.50;99.90;;;;;;5053317;28;20552;-79
2021/10/27 14:14:39;;;;;;;4.63;3.10;;;15.40;99.90;;;;;;5054311;28;20215;-80
2021/10/27 14:17:29;;;;;;;2.50;2.40;;;15.30;99.90;;;;;;5053116;28;20177;-80
2021/10/27 15:20:06;;;;;;;3.33;2.40;;;14.80;99.90;;;;;;5053563;28;20219;-79
2021/10/27 15:30:27;;;;;;;3.45;2.58;;;14.50;99.90;;;;;;5053230;28;20204;-79
2021/10/27 15:33:12;;;;;;;3.10;2.53;;;14.30;99.90;;;;;;5053203;28;20709;-80
2021/10/27 15:41:07;;;;;;;3.22;2.65;;;14.30;99.90;;;;;;5053194;28;20275;-79
2021/10/27 15:43:40;;;;;;;6.32;3.15;;;14.30;99.90;;;;;;5053108;28;20169;-80
2021/10/27 15:51:36;;;;;;;5.78;3.20;;;14.20;99.90;;;;;;5053029;28;20207;-79
2021/10/27 15:54:03;;;;;;;5.65;3.15;;;14.00;99.90;;;;;;5052960;28;20165;-79
2021/10/27 15:56:29;;;;;;;11.25;3.38;;;13.90;99.90;;;;;;5051639;28;20177;-79
2021/10/27 15:58:55;;;;;;;4.45;3.60;;;13.80;99.90;;;;;;5051507;28;20222;-79
2021/10/27 16:01:21;;;;;;;5.72;3.97;;;13.80;99.90;;;;;;5053109;28;20232;-80
2021/10/27 16:03:47;;;;;;;4.55;4.10;;;13.70;99.90;;;;;;5053214;28;20195;-80
2021/10/27 16:06:15;;;;;;;5.82;4.70;;;13.70;99.90;;;;;;5053247;28;20172;-79
2021/10/27 16:08:45;;;;;;;4.43;3.55;;;13.60;99.90;;;;;;5052330;28;20169;-79
2021/10/27 16:11:10;;;;;;;9.10;6.00;;;13.50;99.90;;;;;;5053137;28;20176;-79
2021/10/27 16:13:36;;;;;;;7.75;4.70;;;13.30;99.90;;;;;;5054468;28;20169;-79
2021/10/27 16:16:02;;;;;;;6.65;4.53;;;13.30;99.90;;;;;;5056975;28;20291;-78
